| time (UTC) | temp C | wind direction | speed KPH | gust KPH | rain 1hr cm | rain 24hr cm | rain mn cm | humidity % | barometer mb |
| 20260505101554 | 5 | 19 | 6.4 | 17.7 | 0.00 | 0.36 | 0.00 | 89 | 1010.2 |
| 20260505100057 | 5 | 360 | 4.8 | 12.9 | 0.00 | 0.36 | 0.00 | 89 | 1010.1 |
| 20260505094555 | 5 | 340 | 4.8 | 16.1 | 0.00 | 0.36 | 0.00 | 89 | 1010.1 |
| 20260505093053 | 5 | 352 | 4.8 | 14.5 | 0.00 | 0.36 | 0.00 | 88 | 1010.0 |
| 20260505091620 | 6 | 0 | 3.2 | 19.3 | 0.00 | 0.36 | 0.00 | 88 | 1009.9 |
| 20260505090101 | 7 | 0 | 3.2 | 9.7 | 0.00 | 0.36 | 0.00 | 89 | 1009.8 |
| 20260505084601 | 7 | 28 | 0.0 | 4.8 | 0.00 | 0.36 | 0.00 | 90 | 1009.6 |
| 20260505083105 | 8 | 5 | 0.0 | 4.8 | 0.00 | 0.36 | 0.00 | 90 | 1009.7 |
| 20260505081605 | 7 | 0 | 0.0 | 0.0 | 0.00 | 0.36 | 0.00 | 90 | 1009.7 |
| 20260505080111 | 7 | 0 | 0.0 | 0.0 | 0.00 | 0.36 | 0.00 | 90 | 1009.7 |
| 20260505074559 | 8 | 0 | 0.0 | 0.0 | 0.00 | 0.36 | 0.00 | 90 | 1009.7 |
| 20260505073058 | 8 | 0 | 0.0 | 3.2 | 0.00 | 0.36 | 0.00 | 90 | 1009.8 |
| 20260505071558 | 8 | 0 | 0.0 | 0.0 | 0.00 | 0.36 | 0.00 | 90 | 1009.9 |
| 20260505070059 | 8 | 0 | 0.0 | 0.0 | 0.00 | 0.36 | 0.00 | 90 | 1010.1 |
| 20260505064554 | 8 | 0 | 0.0 | 4.8 | 0.00 | 0.36 | 0.00 | 90 | 1010.1 |
| 20260505063123 | 8 | 0 | 0.0 | 0.0 | 0.00 | 0.36 | 0.00 | 90 | 1010.2 |
| 20260505061639 | 7 | 0 | 0.0 | 0.0 | 0.00 | 0.36 | 0.00 | 90 | 1010.2 |
| 20260505060105 | 7 | 0 | 0.0 | 0.0 | 0.00 | 0.36 | 0.00 | 89 | 1010.1 |
| 20260505054559 | 7 | 0 | 0.0 | 0.0 | 0.00 | 0.36 | 0.36 | 89 | 1010.3 |
| 20260505053100 | 7 | 0 | 0.0 | 0.0 | 0.00 | 0.36 | 0.36 | 89 | 1010.0 |
| 20260505051614 | 7 | 0 | 0.0 | 4.8 | 0.03 | 0.36 | 0.36 | 88 | 1010.1 |
| 20260505041600 | 8 | 0 | 0.0 | 0.0 | 0.20 | 0.33 | 0.33 | 86 | 1010.8 |
| 20260505040107 | 8 | 0 | 0.0 | 0.0 | 0.23 | 0.30 | 0.30 | 85 | 1010.7 |
| 20260505034559 | 8 | 0 | 0.0 | 9.7 | 0.20 | 0.28 | 0.28 | 84 | 1010.9 |
| 20260505033056 | 9 | 0 | 0.0 | 14.5 | 0.15 | 0.23 | 0.23 | 82 | 1011.0 |
| 20260505031558 | 10 | 280 | 1.6 | 4.8 | 0.05 | 0.13 | 0.13 | 76 | 1010.4 |
| 20260505030057 | 10 | 0 | 0.0 | 6.4 | 0.00 | 0.08 | 0.08 | 74 | 1010.0 |
| 20260505024555 | 10 | 0 | 3.2 | 11.3 | 0.00 | 0.08 | 0.08 | 74 | 1009.5 |
| 20260505023058 | 10 | 311 | 0.0 | 0.0 | 0.00 | 0.08 | 0.08 | 82 | 1009.1 |
| 20260505021558 | 10 | 0 | 0.0 | 0.0 | 0.00 | 0.08 | 0.08 | 81 | 1008.8 |
| 20260505014557 | 10 | 0 | 0.0 | 3.2 | 0.00 | 0.08 | 0.08 | 79 | 1008.8 |
| 20260505013107 | 10 | 0 | 0.0 | 0.0 | 0.08 | 0.08 | 0.08 | 79 | 1008.5 |
| 20260505011555 | 11 | 0 | 0.0 | 4.8 | 0.08 | 0.08 | 0.08 | 77 | 1008.6 |
| 20260505010110 | 11 | 92 | 1.6 | 9.7 | 0.08 | 0.08 | 0.08 | 77 | 1008.4 |
| 20260505004554 | 11 | 70 | 1.6 | 6.4 | 0.08 | 0.08 | 0.08 | 70 | 1008.7 |
| 20260505003059 | 13 | 9 | 3.2 | 14.5 | 0.00 | 0.00 | 0.00 | 58 | 1009.0 |
| 20260505001604 | 15 | 195 | 1.6 | 9.7 | 0.00 | 0.00 | 0.00 | 43 | 1008.9 |
| 20260505000052 | 16 | 0 | 0.0 | 9.7 | 0.00 | 0.00 | 0.00 | 41 | 1008.2 |
| 20260504234553 | 16 | 279 | 1.6 | 12.9 | 0.00 | 0.00 | 0.00 | 40 | 1008.1 |
| 20260504233107 | 16 | 19 | 3.2 | 11.3 | 0.00 | 0.00 | 0.00 | 38 | 1007.8 |
| 20260504231551 | 16 | 0 | 1.6 | 19.3 | 0.00 | 0.00 | 0.00 | 38 | 1007.7 |
| 20260504230057 | 17 | 38 | 6.4 | 17.7 | 0.00 | 0.00 | 0.00 | 35 | 1007.4 |
| 20260504224553 | 17 | 352 | 4.8 | 19.3 | 0.00 | 0.00 | 0.00 | 35 | 1007.1 |
| 20260504223053 | 17 | 14 | 6.4 | 22.5 | 0.00 | 0.00 | 0.00 | 34 | 1006.8 |
| 20260504221553 | 17 | 14 | 11.3 | 30.6 | 0.00 | 0.00 | 0.00 | 34 | 1006.7 |
| 20260504220052 | 17 | 345 | 11.3 | 27.4 | 0.00 | 0.00 | 0.00 | 33 | 1006.7 |
| 20260504214556 | 19 | 42 | 6.4 | 20.9 | 0.00 | 0.00 | 0.00 | 24 | 1006.2 |
| 20260504213055 | 20 | 81 | 6.4 | 17.7 | 0.00 | 0.00 | 0.00 | 25 | 1005.9 |
| 20260504211552 | 20 | 29 | 9.7 | 24.1 | 0.00 | 0.00 | 0.00 | 24 | 1006.1 |
| 20260504210106 | 21 | 35 | 4.8 | 17.7 | 0.00 | 0.00 | 0.00 | 24 | 1006.4 |
| 20260504204559 | 22 | 30 | 3.2 | 14.5 | 0.00 | 0.00 | 0.00 | 25 | 1006.7 |
| 20260504203104 | 21 | 286 | 6.4 | 20.9 | 0.00 | 0.00 | 0.00 | 27 | 1007.0 |
| 20260504201557 | 20 | 18 | 4.8 | 17.7 | 0.00 | 0.00 | 0.00 | 27 | 1006.9 |
| 20260504200056 | 18 | 5 | 11.3 | 24.1 | 0.00 | 0.00 | 0.00 | 30 | 1006.9 |
| 20260504194602 | 17 | 38 | 11.3 | 24.1 | 0.00 | 0.00 | 0.00 | 31 | 1007.0 |
| 20260504193058 | 17 | 30 | 12.9 | 27.4 | 0.00 | 0.00 | 0.00 | 32 | 1007.1 |
| 20260504191555 | 17 | 229 | 9.7 | 20.9 | 0.00 | 0.00 | 0.00 | 31 | 1007.9 |
| 20260504190126 | 17 | 216 | 9.7 | 27.4 | 0.00 | 0.00 | 0.00 | 30 | 1007.4 |
| 20260504184555 | 19 | 188 | 8.0 | 25.7 | 0.00 | 0.00 | 0.00 | 25 | 1006.9 |
| 20260504183057 | 20 | 202 | 1.6 | 8.0 | 0.00 | 0.00 | 0.00 | 21 | 1006.6 |
| 20260504181559 | 20 | 0 | 0.0 | 16.1 | 0.00 | 0.00 | 0.00 | 21 | 1006.6 |
| 20260504180059 | 21 | 5 | 6.4 | 19.3 | 0.00 | 0.00 | 0.00 | 20 | 1006.6 |
| 20260504174559 | 21 | 325 | 3.2 | 17.7 | 0.00 | 0.00 | 0.00 | 19 | 1006.7 |
| 20260504173057 | 23 | 61 | 1.6 | 12.9 | 0.00 | 0.00 | 0.00 | 19 | 1006.9 |
| 20260504171558 | 22 | 360 | 4.8 | 16.1 | 0.00 | 0.00 | 0.00 | 20 | 1007.1 |